Rocky Mountain Metropolitan Airport
KBJC : now visible

Airfield :











YOU CAN JOIN US ON...

 
LOGIN :

Register | Disclaimer

   EN    FR    IT 

 









Legend :    VFR   Marginal VFR   IFR   Intensive IFR   Very Intensive IFR
Visi :
Ceiling :
>= 8 km
>= 3000ft
5 to 8 km
1000 to 3000 ft
1500m to 5 km
500 to 1000 ft
800 to 1500m
200 to 500 ft
< 800m
< 200 ft
Symbols :   Thunderstorms  Fog  Heavy snow  Heavy precipitations  Wind > 20 kt







- Airport Elevation : 5673 ft


KBJC - Rocky Mountain Metropolitan

CURRENT METAR :
  • 211111Z AUTO 35006KT 1 3/4SM -SN OVC002 00/00 A2966 RMK AO2

EXPIRED METARs :
  • 211051Z AUTO 35007KT 2 1/2SM -SN OVC004 00/00 A2967 RMK AO2
  • 211034Z AUTO 34005KT 2SM -SN OVC004 00/00 A2968 RMK AO2
  • 211011Z AUTO 34005KT 2SM -SN BKN004 OVC010 00/00 A2968 RMK AO2
  • 210953Z AUTO 34005KT 2SM -SN OVC004 00/00 A2969 RMK AO2
  • 210936Z AUTO 34005KT 1 1/2SM -SN OVC002 00/00 A2969 RMK AO2
  • 210912Z AUTO 33004KT 1 1/4SM -SN OVC002 00/00 A2970 RMK AO2 LTG DSNT NW
  • 210852Z AUTO 02004KT 1SM -RA OVC002 00/00 A2971 RMK AO2 LTG DSNT W
  • 210834Z AUTO 35005KT 1 1/2SM -SN OVC002 00/00 A2970 RMK AO2

TAF KBJC
Valid from the 21 at 06:00 until the 22 at 06:00 UTC


210523Z 2106/2206 35005KT 1 1/2SM -SN BR OVC004
TEMPO 2106/2108 3/4SM -SN BR
FM211000 34011KT 1 1/2SM -SN BR BKN004 OVC010
FM211700 34010KT 5SM -SHRASN BR BKN008 OVC015
FM211900 35014KT P6SM BKN010 OVC020
TEMPO 2119/2123 -SHRA
FM220300 24005KT P6SM BKN022
KZDV FIR / North America



MET'MAP, your aeronautical weather chart ! - Copyright ORBIFLY December 2007 - Disclaimer

ORBIFLY MET'MAP TEAM :

Programming & Development : Alexandra Zaïnal
Concept & Development : Baudouin d'Aumeries
Co-Development & Prog : Marc-Olivier Méhu
Technical & hardware support : Manuel Goepfert

Contact : metmap@orbifly.com




SOURCES & CREDITS :

   NOAA       Earth
Advisory